Time;durP1;ratioP1;P1;durP2;ratioP2;P2;SDS_P1;SDS_P2;PMS_P1;PMS_P2;Temp;Humidity;BMP_temperature;BMP_pressure;BME280_temperature;BME280_humidity;BME280_pressure;Samples;Min_cycle;Max_cycle;Signal;HPM_P1;HPM_P2
2023/04/04 00:02:04;;;;;;;2.88;1.30;;;;;;;;;;5055936;28;20029;-70
2023/04/04 00:04:30;;;;;;;2.03;1.45;;;;;;;;;;5056085;28;20033;-69
2023/04/04 00:06:57;;;;;;;1.67;1.33;;;;;;;;;;5055973;28;20066;-70
2023/04/04 00:09:23;;;;;;;3.47;1.58;;;;;;;;;;5056043;28;20506;-69
2023/04/04 00:11:50;;;;;;;1.80;1.42;;;;;;;;;;5056329;28;20025;-70
2023/04/04 00:14:16;;;;;;;1.90;1.70;;;;;;;;;;5055936;28;20019;-70
2023/04/04 00:16:43;;;;;;;4.32;1.70;;;;;;;;;;5055840;28;20076;-70
2023/04/04 00:19:13;;;;;;;4.50;2.00;;;;;;;;;;5055687;28;20029;-69
2023/04/04 00:21:39;;;;;;;2.05;1.73;;;;;;;;;;5055659;28;20033;-69
2023/04/04 00:24:06;;;;;;;2.50;1.77;;;;;;;;;;5056009;28;20017;-69
2023/04/04 00:26:32;;;;;;;1.92;1.50;;;;;;;;;;5055671;28;20025;-69
2023/04/04 00:28:58;;;;;;;3.53;1.75;;;;;;;;;;5055546;28;20373;-69
2023/04/04 00:31:26;;;;;;;1.90;1.67;;;;;;;;;;5055444;28;20527;-69
2023/04/04 00:33:52;;;;;;;3.28;1.60;;;;;;;;;;5055334;28;20504;-69
2023/04/04 00:36:18;;;;;;;3.28;1.80;;;;;;;;;;5054364;28;20032;-69
2023/04/04 00:38:45;;;;;;;2.00;1.70;;;;;;;;;;5055626;28;20095;-70
2023/04/04 00:41:12;;;;;;;2.75;1.55;;;;;;;;;;5055314;28;20043;-70
2023/04/04 00:43:38;;;;;;;2.70;1.60;;;;;;;;;;5055781;28;20029;-69
2023/04/04 00:46:04;;;;;;;1.92;1.63;;;;;;;;;;5055140;28;20043;-69
2023/04/04 00:48:32;;;;;;;4.47;1.58;;;;;;;;;;5055686;28;20032;-69
2023/04/04 00:50:58;;;;;;;1.95;1.67;;;;;;;;;;5055705;28;20017;-69
2023/04/04 00:53:24;;;;;;;2.40;1.60;;;;;;;;;;5055378;28;20021;-69
2023/04/04 00:55:51;;;;;;;3.88;1.70;;;;;;;;;;5055167;28;20381;-69
2023/04/04 00:58:18;;;;;;;2.00;1.70;;;;;;;;;;5054040;28;20492;-69
2023/04/04 01:00:44;;;;;;;3.13;1.88;;;;;;;;;;5055018;28;20037;-70
2023/04/04 01:03:11;;;;;;;1.92;1.60;;;;;;;;;;5054831;28;20429;-69
2023/04/04 01:05:38;;;;;;;2.58;1.77;;;;;;;;;;5054952;28;20029;-68
2023/04/04 01:08:05;;;;;;;1.63;1.42;;;;;;;;;;5055214;28;20031;-69
2023/04/04 01:10:33;;;;;;;2.78;2.05;;;;;;;;;;5054787;28;20392;-69
2023/04/04 01:13:00;;;;;;;1.50;1.40;;;;;;;;;;5053433;28;20019;-70
2023/04/04 01:15:26;;;;;;;2.05;1.60;;;;;;;;;;5054857;28;20020;-69
2023/04/04 01:17:55;;;;;;;3.40;1.70;;;;;;;;;;5054613;28;20023;-69
2023/04/04 01:20:24;;;;;;;1.90;1.60;;;;;;;;;;5053474;28;20055;-69
2023/04/04 01:22:51;;;;;;;1.98;1.73;;;;;;;;;;5054770;28;20028;-69
2023/04/04 01:25:25;;;;;;;1.88;1.67;;;;;;;;;;5054647;28;20389;-69
2023/04/04 01:27:52;;;;;;;2.70;2.03;;;;;;;;;;5054241;28;20021;-69
2023/04/04 01:30:19;;;;;;;2.33;1.88;;;;;;;;;;5052925;28;20063;-69
2023/04/04 01:32:50;;;;;;;3.28;2.10;;;;;;;;;;5054353;28;20025;-69
2023/04/04 01:35:30;;;;;;;6.38;1.95;;;;;;;;;;5054406;28;20025;-70
2023/04/04 01:37:59;;;;;;;2.90;1.93;;;;;;;;;;5054239;28;20029;-69
2023/04/04 01:40:28;;;;;;;2.15;1.60;;;;;;;;;;5054372;28;20276;-69
2023/04/04 01:42:56;;;;;;;2.60;2.00;;;;;;;;;;5054003;28;20440;-69
2023/04/04 01:45:23;;;;;;;3.33;2.08;;;;;;;;;;5054273;28;20020;-69
2023/04/04 01:47:49;;;;;;;1.92;1.70;;;;;;;;;;5054431;28;20033;-69
2023/04/04 01:50:16;;;;;;;3.85;1.80;;;;;;;;;;5054368;28;20028;-70
2023/04/04 01:52:42;;;;;;;3.97;1.90;;;;;;;;;;5053937;28;20374;-69
2023/04/04 01:55:09;;;;;;;2.17;1.80;;;;;;;;;;5054331;28;20028;-69
2023/04/04 01:57:36;;;;;;;4.68;2.10;;;;;;;;;;5053702;28;20023;-69
2023/04/04 02:00:04;;;;;;;2.78;2.13;;;;;;;;;;5053559;28;20047;-69
2023/04/04 02:02:30;;;;;;;2.20;1.80;;;;;;;;;;5053879;28;20027;-69
2023/04/04 02:04:57;;;;;;;3.58;2.20;;;;;;;;;;5054185;28;20234;-70
2023/04/04 02:07:23;;;;;;;2.38;1.77;;;;;;;;;;5053859;28;20017;-69
2023/04/04 02:09:49;;;;;;;3.85;1.75;;;;;;;;;;5053661;28;20477;-69
2023/04/04 02:12:16;;;;;;;3.63;2.10;;;;;;;;;;5053781;28;20033;-69
2023/04/04 02:14:42;;;;;;;2.05;1.85;;;;;;;;;;5053954;28;20032;-69
2023/04/04 02:17:09;;;;;;;3.00;2.22;;;;;;;;;;5053473;28;20025;-69
2023/04/04 02:19:35;;;;;;;2.17;1.98;;;;;;;;;;5053573;28;20036;-69
2023/04/04 02:22:01;;;;;;;2.25;1.73;;;;;;;;;;5053282;28;20021;-69
2023/04/04 02:24:28;;;;;;;3.10;1.95;;;;;;;;;;5053175;28;20025;-70
2023/04/04 02:26:54;;;;;;;2.70;1.85;;;;;;;;;;5053248;28;20373;-69
2023/04/04 02:29:21;;;;;;;4.65;2.28;;;;;;;;;;5053419;28;20043;-69
2023/04/04 02:31:48;;;;;;;2.47;1.90;;;;;;;;;;5085366;28;20028;-70
2023/04/04 02:34:14;;;;;;;2.97;2.35;;;;;;;;;;5053585;28;20070;-69
2023/04/04 02:36:40;;;;;;;2.72;2.38;;;;;;;;;;5053075;28;20017;-69
2023/04/04 02:39:07;;;;;;;2.28;1.77;;;;;;;;;;5053209;28;20029;-69
2023/04/04 02:41:33;;;;;;;2.47;2.13;;;;;;;;;;5053052;28;20029;-69
2023/04/04 02:44:00;;;;;;;2.90;2.22;;;;;;;;;;5053184;28;20035;-69
2023/04/04 02:46:26;;;;;;;2.50;2.30;;;;;;;;;;5053135;28;20481;-69
2023/04/04 02:48:52;;;;;;;2.22;1.98;;;;;;;;;;5053342;28;20029;-69
2023/04/04 02:51:19;;;;;;;2.60;1.92;;;;;;;;;;5052815;28;20033;-70
2023/04/04 02:53:45;;;;;;;3.92;2.13;;;;;;;;;;5053277;28;20074;-69
2023/04/04 02:56:12;;;;;;;3.03;2.30;;;;;;;;;;5052623;28;20035;-69
2023/04/04 02:58:38;;;;;;;3.25;2.33;;;;;;;;;;5052972;28;20032;-69
2023/04/04 03:01:04;;;;;;;4.95;2.80;;;;;;;;;;5052611;28;20037;-69
2023/04/04 03:03:31;;;;;;;2.72;2.33;;;;;;;;;;5052646;28;20058;-69
2023/04/04 03:05:58;;;;;;;3.38;2.40;;;;;;;;;;5052788;28;20059;-69
2023/04/04 03:08:25;;;;;;;3.15;2.60;;;;;;;;;;5052694;28;20021;-70
2023/04/04 03:10:51;;;;;;;2.97;2.30;;;;;;;;;;5052746;28;20021;-69
2023/04/04 03:13:17;;;;;;;3.53;2.47;;;;;;;;;;5052414;28;20367;-70
2023/04/04 03:15:43;;;;;;;4.13;2.40;;;;;;;;;;5052891;28;20104;-69
2023/04/04 03:18:10;;;;;;;3.15;2.60;;;;;;;;;;5052612;28;20510;-69
2023/04/04 03:20:36;;;;;;;2.78;2.40;;;;;;;;;;5052556;28;20041;-69
2023/04/04 03:23:03;;;;;;;5.53;2.88;;;;;;;;;;5052295;28;20074;-69
2023/04/04 03:25:29;;;;;;;3.05;2.42;;;;;;;;;;5052401;28;20025;-70
2023/04/04 03:27:56;;;;;;;3.50;2.92;;;;;;;;;;5052307;28;20027;-69
2023/04/04 03:30:22;;;;;;;4.28;2.63;;;;;;;;;;5052272;28;20045;-69
2023/04/04 03:32:49;;;;;;;2.92;2.53;;;;;;;;;;5052531;28;20024;-70
2023/04/04 03:35:15;;;;;;;5.65;3.08;;;;;;;;;;5051828;28;20486;-70
2023/04/04 03:37:42;;;;;;;3.05;2.33;;;;;;;;;;5052256;28;20032;-69
2023/04/04 03:40:08;;;;;;;3.75;3.05;;;;;;;;;;5052473;28;20032;-69
2023/04/04 03:42:35;;;;;;;3.17;2.50;;;;;;;;;;5052328;28;20029;-69
2023/04/04 03:45:02;;;;;;;3.10;2.30;;;;;;;;;;5052278;28;20367;-70
2023/04/04 03:47:28;;;;;;;8.23;2.78;;;;;;;;;;5052460;28;20058;-68
2023/04/04 03:49:55;;;;;;;3.50;2.42;;;;;;;;;;5052159;28;20017;-69
2023/04/04 03:52:21;;;;;;;2.97;2.20;;;;;;;;;;5051741;28;20041;-69
2023/04/04 03:54:48;;;;;;;3.53;2.80;;;;;;;;;;5051965;28;20025;-70
2023/04/04 03:57:14;;;;;;;3.25;2.50;;;;;;;;;;5051944;28;20279;-69
2023/04/04 03:59:41;;;;;;;3.80;2.60;;;;;;;;;;5052013;28;20033;-69
2023/04/04 04:02:07;;;;;;;4.25;2.97;;;;;;;;;;5051882;28;20021;-69
2023/04/04 04:04:33;;;;;;;3.40;2.72;;;;;;;;;;5051904;28;20027;-69
2023/04/04 04:07:01;;;;;;;4.22;2.70;;;;;;;;;;5051621;28;20031;-69
2023/04/04 04:09:27;;;;;;;3.67;2.75;;;;;;;;;;5051819;28;20481;-69
2023/04/04 04:11:54;;;;;;;4.97;2.88;;;;;;;;;;5052076;28;20035;-69
2023/04/04 04:14:21;;;;;;;4.35;2.83;;;;;;;;;;5052217;28;20029;-70
2023/04/04 04:16:47;;;;;;;6.90;2.60;;;;;;;;;;5051935;28;20024;-69
2023/04/04 04:19:13;;;;;;;3.25;2.50;;;;;;;;;;5052095;28;20029;-70
2023/04/04 04:21:41;;;;;;;4.07;2.67;;;;;;;;;;5051667;28;20470;-69
2023/04/04 04:24:07;;;;;;;5.50;2.88;;;;;;;;;;5051972;28;20021;-69
2023/04/04 04:26:34;;;;;;;3.67;2.92;;;;;;;;;;5084109;28;20043;-69
2023/04/04 04:29:01;;;;;;;4.75;2.95;;;;;;;;;;5051502;28;20021;-69
2023/04/04 04:31:27;;;;;;;4.07;3.33;;;;;;;;;;5051932;28;20043;-69
2023/04/04 04:33:53;;;;;;;4.30;3.60;;;;;;;;;;5051657;28;20027;-69
2023/04/04 04:36:20;;;;;;;5.15;3.67;;;;;;;;;;5051690;28;20095;-69
2023/04/04 04:38:46;;;;;;;5.10;3.85;;;;;;;;;;5051796;28;20031;-69
2023/04/04 04:41:13;;;;;;;7.18;4.70;;;;;;;;;;5051445;28;20062;-69
2023/04/04 04:43:40;;;;;;;6.93;4.15;;;;;;;;;;5084097;28;20044;-70
2023/04/04 04:46:07;;;;;;;5.05;3.53;;;;;;;;;;5051875;28;20032;-69
2023/04/04 04:48:34;;;;;;;5.00;3.55;;;;;;;;;;5055171;28;20017;-69
2023/04/04 04:51:00;;;;;;;4.43;3.45;;;;;;;;;;5055457;28;20035;-69
2023/04/04 04:53:26;;;;;;;5.95;3.05;;;;;;;;;;5055230;28;20031;-69
2023/04/04 04:55:53;;;;;;;4.22;2.90;;;;;;;;;;5055030;28;20507;-69
2023/04/04 04:58:21;;;;;;;4.55;3.15;;;;;;;;;;5055122;28;20023;-69
2023/04/04 05:00:47;;;;;;;4.47;3.17;;;;;;;;;;5055062;28;20396;-69
2023/04/04 05:03:14;;;;;;;4.50;3.40;;;;;;;;;;5055273;28;20021;-69
2023/04/04 05:05:42;;;;;;;4.43;3.30;;;;;;;;;;5054673;28;20040;-69
2023/04/04 05:08:08;;;;;;;3.55;3.03;;;;;;;;;;5055188;28;20025;-70
2023/04/04 05:13:39;;;;;;;5.78;3.22;;;;;;;;;;5054901;28;20025;-69
2023/04/04 05:16:05;;;;;;;5.05;3.53;;;;;;;;;;5055043;28;20024;-69
2023/04/04 05:18:31;;;;;;;5.97;4.03;;;;;;;;;;5054813;28;20021;-69
2023/04/04 05:20:57;;;;;;;4.20;3.42;;;;;;;;;;5054489;28;20409;-69
2023/04/04 05:23:24;;;;;;;6.75;3.72;;;;;;;;;;5053857;28;20032;-69
2023/04/04 05:25:53;;;;;;;5.85;4.13;;;;;;;;;;5054791;28;20028;-69
2023/04/04 05:28:20;;;;;;;15.60;5.38;;;;;;;;;;5055405;28;20024;-69
2023/04/04 05:30:47;;;;;;;8.98;4.70;;;;;;;;;;5054495;28;20409;-69
2023/04/04 05:33:13;;;;;;;10.95;5.00;;;;;;;;;;5054604;28;20041;-69
2023/04/04 05:35:40;;;;;;;8.45;4.90;;;;;;;;;;5053044;28;20027;-69
2023/04/04 05:38:06;;;;;;;8.07;4.95;;;;;;;;;;5054299;28;20025;-69
2023/04/04 05:40:33;;;;;;;8.63;4.78;;;;;;;;;;5054170;28;20033;-69
2023/04/04 05:43:03;;;;;;;11.98;4.97;;;;;;;;;;5054564;28;20469;-69
2023/04/04 05:45:33;;;;;;;11.23;4.85;;;;;;;;;;5054576;28;20432;-69
2023/04/04 05:47:59;;;;;;;7.43;4.55;;;;;;;;;;5054106;28;20021;-69
2023/04/04 05:50:25;;;;;;;8.98;5.07;;;;;;;;;;5054011;28;20037;-69
2023/04/04 05:52:56;;;;;;;11.40;6.22;;;;;;;;;;5054270;28;20028;-69
2023/04/04 05:55:22;;;;;;;18.58;7.05;;;;;;;;;;5054373;28;20021;-69
2023/04/04 05:57:50;;;;;;;12.05;7.30;;;;;;;;;;5053826;28;20051;-69
2023/04/04 06:00:16;;;;;;;14.95;7.55;;;;;;;;;;5053985;28;20028;-70
2023/04/04 06:02:43;;;;;;;15.10;7.70;;;;;;;;;;5054395;28;20009;-70
2023/04/04 06:05:10;;;;;;;15.15;7.93;;;;;;;;;;5053907;28;20051;-69
2023/04/04 06:07:37;;;;;;;13.27;6.50;;;;;;;;;;5054231;28;20024;-70
2023/04/04 06:10:06;;;;;;;12.57;6.93;;;;;;;;;;5053733;28;20025;-69
2023/04/04 06:12:33;;;;;;;12.45;5.65;;;;;;;;;;5048323;28;20104;-70
2023/04/04 06:14:59;;;;;;;9.13;5.60;;;;;;;;;;5053393;28;20478;-69
2023/04/04 06:17:25;;;;;;;8.93;5.40;;;;;;;;;;5053490;28;20082;-69
2023/04/04 06:19:54;;;;;;;14.52;6.97;;;;;;;;;;5051685;28;20021;-69
2023/04/04 06:22:20;;;;;;;12.70;6.97;;;;;;;;;;5052151;28;20027;-69
2023/04/04 06:24:46;;;;;;;16.60;6.65;;;;;;;;;;5053480;28;20017;-69
2023/04/04 06:27:13;;;;;;;16.02;6.60;;;;;;;;;;5051835;28;20078;-69
2023/04/04 06:29:40;;;;;;;12.77;6.28;;;;;;;;;;5051482;28;20043;-69
2023/04/04 06:32:06;;;;;;;12.82;5.97;;;;;;;;;;5049758;28;20032;-69
2023/04/04 06:34:33;;;;;;;12.15;6.20;;;;;;;;;;5040933;28;20027;-70
2023/04/04 06:36:59;;;;;;;11.25;6.15;;;;;;;;;;5030399;28;20022;-70
2023/04/04 06:39:26;;;;;;;18.30;5.80;;;;;;;;;;5028443;28;20023;-70
2023/04/04 06:41:52;;;;;;;9.52;5.90;;;;;;;;;;5031297;28;20031;-69
2023/04/04 06:44:18;;;;;;;11.77;6.00;;;;;;;;;;5042950;28;20024;-69
2023/04/04 06:46:45;;;;;;;15.32;6.95;;;;;;;;;;5052498;28;20039;-69
2023/04/04 06:49:11;;;;;;;13.55;7.35;;;;;;;;;;5052539;28;20017;-69
2023/04/04 06:51:40;;;;;;;15.70;6.80;;;;;;;;;;5051427;28;20029;-69
2023/04/04 06:54:06;;;;;;;15.90;7.28;;;;;;;;;;5057606;28;20487;-70
2023/04/04 06:56:32;;;;;;;17.02;6.97;;;;;;;;;;5070148;28;20400;-69
2023/04/04 06:58:59;;;;;;;14.65;6.25;;;;;;;;;;5051925;28;20040;-70
2023/04/04 07:01:25;;;;;;;13.45;5.80;;;;;;;;;;5058382;28;20048;-69
2023/04/04 07:03:55;;;;;;;12.90;5.40;;;;;;;;;;5067166;28;20020;-70
2023/04/04 07:06:23;;;;;;;10.07;4.88;;;;;;;;;;5062104;28;20459;-70
2023/04/04 07:08:49;;;;;;;12.57;5.28;;;;;;;;;;5072341;28;20017;-69
2023/04/04 07:11:16;;;;;;;11.40;4.97;;;;;;;;;;5055281;28;20025;-70
2023/04/04 07:13:42;;;;;;;17.67;5.40;;;;;;;;;;5048569;28;20037;-70
2023/04/04 07:16:10;;;;;;;15.00;4.20;;;;;;;;;;5041603;28;20029;-70
2023/04/04 07:18:36;;;;;;;9.80;4.15;;;;;;;;;;5050736;28;20027;-70
2023/04/04 07:21:03;;;;;;;4.88;3.60;;;;;;;;;;5050478;28;20505;-69
2023/04/04 07:23:30;;;;;;;5.18;3.78;;;;;;;;;;5050720;28;20401;-70
2023/04/04 07:25:56;;;;;;;5.97;3.25;;;;;;;;;;5050919;28;20035;-70
2023/04/04 07:28:23;;;;;;;6.85;3.42;;;;;;;;;;5049687;28;20031;-70
2023/04/04 07:30:49;;;;;;;5.75;3.38;;;;;;;;;;5048687;28;20510;-70
2023/04/04 07:33:15;;;;;;;9.32;4.15;;;;;;;;;;5050348;28;20040;-70
2023/04/04 07:35:42;;;;;;;4.53;3.50;;;;;;;;;;5050583;28;20025;-70
2023/04/04 07:38:09;;;;;;;8.32;3.13;;;;;;;;;;5051020;28;20082;-70
2023/04/04 07:40:35;;;;;;;6.72;3.05;;;;;;;;;;5049658;28;20033;-68
2023/04/04 07:43:01;;;;;;;9.57;3.28;;;;;;;;;;5049375;28;20020;-70
2023/04/04 07:45:28;;;;;;;4.10;3.50;;;;;;;;;;5049361;28;20037;-69
2023/04/04 07:47:54;;;;;;;4.82;3.33;;;;;;;;;;5048743;28;20024;-70
2023/04/04 07:50:21;;;;;;;4.63;3.25;;;;;;;;;;5049654;28;20033;-69
2023/04/04 07:52:51;;;;;;;4.65;2.90;;;;;;;;;;5049850;28;20021;-70
2023/04/04 07:55:19;;;;;;;4.57;3.50;;;;;;;;;;5049738;28;20391;-70
2023/04/04 07:57:45;;;;;;;2.83;2.60;;;;;;;;;;5050250;28;20032;-70
2023/04/04 08:00:12;;;;;;;2.60;2.40;;;;;;;;;;5050206;28;20029;-69
2023/04/04 08:02:39;;;;;;;3.40;2.35;;;;;;;;;;5049989;28;20025;-68
2023/04/04 08:05:05;;;;;;;2.40;2.08;;;;;;;;;;5050245;28;20481;-70
2023/04/04 08:07:32;;;;;;;2.78;2.20;;;;;;;;;;5055454;28;20412;-68
2023/04/04 08:09:58;;;;;;;2.50;2.28;;;;;;;;;;5050188;28;20033;-68
2023/04/04 08:12:25;;;;;;;2.25;2.05;;;;;;;;;;5050189;28;20035;-68
2023/04/04 08:14:51;;;;;;;4.20;2.17;;;;;;;;;;5049577;28;20025;-68
2023/04/04 08:17:19;;;;;;;2.10;1.90;;;;;;;;;;5050359;28;20028;-68
2023/04/04 08:19:45;;;;;;;2.50;2.20;;;;;;;;;;5049602;28;20035;-68
2023/04/04 08:22:12;;;;;;;3.03;2.40;;;;;;;;;;5051181;28;20039;-68
2023/04/04 08:24:38;;;;;;;2.28;2.08;;;;;;;;;;5054244;28;20028;-68
2023/04/04 08:27:05;;;;;;;2.67;2.40;;;;;;;;;;5054165;28;20028;-66
2023/04/04 08:29:33;;;;;;;2.35;2.00;;;;;;;;;;5054512;28;20509;-68
2023/04/04 08:32:00;;;;;;;2.42;2.05;;;;;;;;;;5054376;28;20500;-68
2023/04/04 08:34:27;;;;;;;5.10;1.95;;;;;;;;;;5054409;28;20385;-69
2023/04/04 08:36:53;;;;;;;2.42;2.00;;;;;;;;;;5053610;28;20485;-67
2023/04/04 08:39:20;;;;;;;3.58;2.30;;;;;;;;;;5053490;28;20438;-68
2023/04/04 08:41:46;;;;;;;2.92;1.92;;;;;;;;;;5053650;28;20039;-68
2023/04/04 08:44:19;;;;;;;2.40;2.13;;;;;;;;;;5053221;28;20023;-68
2023/04/04 08:46:46;;;;;;;4.63;2.03;;;;;;;;;;5053955;28;20021;-68
2023/04/04 08:49:13;;;;;;;4.82;2.28;;;;;;;;;;5053386;28;20021;-68
2023/04/04 08:51:41;;;;;;;1.85;1.75;;;;;;;;;;5053046;28;20037;-68
2023/04/04 08:54:08;;;;;;;2.78;1.92;;;;;;;;;;5053305;28;20047;-68
2023/04/04 08:56:34;;;;;;;4.88;2.10;;;;;;;;;;5053644;28;20308;-68
2023/04/04 08:59:01;;;;;;;6.63;2.10;;;;;;;;;;5052746;28;20039;-68
2023/04/04 09:01:30;;;;;;;2.35;1.83;;;;;;;;;;5052735;28;20035;-68
2023/04/04 09:03:57;;;;;;;2.10;1.77;;;;;;;;;;5053038;28;20025;-68
2023/04/04 09:06:23;;;;;;;3.78;1.80;;;;;;;;;;5052986;28;20391;-68
2023/04/04 09:08:52;;;;;;;1.90;1.70;;;;;;;;;;5053451;28;20025;-69
2023/04/04 09:11:20;;;;;;;2.35;1.90;;;;;;;;;;5047813;28;20033;-68
2023/04/04 09:13:48;;;;;;;1.92;1.70;;;;;;;;;;5033914;28;20083;-68
2023/04/04 09:16:14;;;;;;;1.90;1.80;;;;;;;;;;5050137;28;20099;-69
2023/04/04 09:18:40;;;;;;;2.10;1.70;;;;;;;;;;5053883;28;20013;-68
2023/04/04 09:21:10;;;;;;;3.75;1.80;;;;;;;;;;5054171;28;20033;-68
2023/04/04 09:23:37;;;;;;;2.10;1.90;;;;;;;;;;5052806;28;20039;-68
2023/04/04 09:26:03;;;;;;;1.98;1.50;;;;;;;;;;5053349;28;20555;-68
2023/04/04 09:28:30;;;;;;;4.22;1.70;;;;;;;;;;5053350;28;20547;-68
2023/04/04 09:30:59;;;;;;;2.05;1.63;;;;;;;;;;5053023;28;20059;-68
2023/04/04 09:33:26;;;;;;;4.18;1.95;;;;;;;;;;5052502;28;20029;-68
2023/04/04 09:36:02;;;;;;;3.10;1.88;;;;;;;;;;5052390;28;20056;-68
2023/04/04 09:38:29;;;;;;;1.95;1.75;;;;;;;;;;5053059;28;20041;-68
2023/04/04 09:40:55;;;;;;;1.80;1.70;;;;;;;;;;5052847;28;20039;-68
2023/04/04 09:43:25;;;;;;;2.08;1.55;;;;;;;;;;5053161;28;20055;-68
2023/04/04 09:45:54;;;;;;;4.35;1.55;;;;;;;;;;5052724;28;20397;-67
2023/04/04 09:48:27;;;;;;;2.50;1.52;;;;;;;;;;5052909;28;20025;-67
2023/04/04 09:50:54;;;;;;;1.75;1.50;;;;;;;;;;5049043;28;20031;-68
2023/04/04 09:53:20;;;;;;;3.40;1.70;;;;;;;;;;5052776;28;20021;-68
2023/04/04 09:55:51;;;;;;;1.92;1.55;;;;;;;;;;5052271;28;20431;-68
2023/04/04 09:58:19;;;;;;;1.77;1.67;;;;;;;;;;5052136;28;20469;-68
2023/04/04 10:00:47;;;;;;;1.50;1.40;;;;;;;;;;5052376;28;20033;-68
2023/04/04 10:03:17;;;;;;;1.42;1.30;;;;;;;;;;5052118;28;20389;-68
2023/04/04 10:05:46;;;;;;;3.38;1.75;;;;;;;;;;5052030;28;20037;-68
2023/04/04 10:08:14;;;;;;;1.70;1.60;;;;;;;;;;5050968;28;20375;-68
2023/04/04 10:10:51;;;;;;;1.60;1.50;;;;;;;;;;5052377;28;20473;-68
2023/04/04 10:13:30;;;;;;;1.80;1.70;;;;;;;;;;5050487;28;20047;-68
2023/04/04 10:15:57;;;;;;;1.70;1.60;;;;;;;;;;5052171;28;20029;-68
2023/04/04 10:18:25;;;;;;;3.42;1.50;;;;;;;;;;5052256;28;20025;-68
2023/04/04 10:20:53;;;;;;;1.70;1.60;;;;;;;;;;5052694;28;20043;-68
2023/04/04 10:23:19;;;;;;;2.90;1.60;;;;;;;;;;5052794;28;20017;-68
2023/04/04 10:25:46;;;;;;;1.58;1.40;;;;;;;;;;5051760;28;20035;-68
2023/04/04 10:28:12;;;;;;;4.18;1.63;;;;;;;;;;5052558;28;20017;-67
2023/04/04 10:30:43;;;;;;;4.50;2.38;;;;;;;;;;5052055;28;20045;-68
2023/04/04 10:33:15;;;;;;;28.80;7.18;;;;;;;;;;5052101;28;20029;-68
2023/04/04 10:35:44;;;;;;;2.65;1.60;;;;;;;;;;5052005;28;20021;-68
2023/04/04 10:38:12;;;;;;;4.10;1.75;;;;;;;;;;5052226;28;20074;-68
2023/04/04 10:40:41;;;;;;;3.13;1.52;;;;;;;;;;5051767;28;20044;-68
2023/04/04 10:43:07;;;;;;;8.85;1.45;;;;;;;;;;5052170;28;20021;-68
2023/04/04 10:45:37;;;;;;;2.10;1.50;;;;;;;;;;5051929;28;20033;-68
2023/04/04 10:48:04;;;;;;;1.48;1.35;;;;;;;;;;5051932;28;20025;-68
2023/04/04 10:50:34;;;;;;;1.48;1.20;;;;;;;;;;5052296;28;20046;-68
2023/04/04 10:53:03;;;;;;;1.45;1.30;;;;;;;;;;5051445;28;20377;-68
2023/04/04 10:55:30;;;;;;;1.20;1.10;;;;;;;;;;5051868;28;20055;-68
2023/04/04 10:57:57;;;;;;;1.33;1.23;;;;;;;;;;5052350;28;20024;-68
2023/04/04 11:00:24;;;;;;;4.03;1.40;;;;;;;;;;5047806;28;20490;-68
2023/04/04 11:03:00;;;;;;;3.20;1.27;;;;;;;;;;5035681;28;20025;-67
2023/04/04 11:05:33;;;;;;;1.50;1.40;;;;;;;;;;5050897;28;20035;-68
2023/04/04 11:08:01;;;;;;;2.75;1.50;;;;;;;;;;5030165;28;20032;-68
2023/04/04 11:10:35;;;;;;;1.77;1.48;;;;;;;;;;5030587;28;20115;-68
2023/04/04 11:13:07;;;;;;;2.22;1.50;;;;;;;;;;5032901;28;20026;-66
2023/04/04 11:15:51;;;;;;;1.88;1.30;;;;;;;;;;5048809;28;20025;-67
2023/04/04 11:18:22;;;;;;;2.10;1.55;;;;;;;;;;5049109;28;20035;-67
2023/04/04 11:20:48;;;;;;;;;;;;;;;;;;5048382;28;20509;-68
2023/04/04 11:23:15;;;;;;;1.35;1.10;;;;;;;;;;5045687;28;19919;-68
2023/04/04 11:25:49;;;;;;;3.10;1.60;;;;;;;;;;5048200;28;20029;-67
2023/04/04 11:28:26;;;;;;;1.95;1.30;;;;;;;;;;5039186;28;20043;-67
2023/04/04 11:31:11;;;;;;;3.33;1.10;;;;;;;;;;5030998;28;20046;-68
2023/04/04 11:33:56;;;;;;;1.35;1.20;;;;;;;;;;5030887;28;20387;-68
2023/04/04 11:36:37;;;;;;;1.80;1.20;;;;;;;;;;5030963;28;20025;-67
2023/04/04 11:39:11;;;;;;;2.47;1.40;;;;;;;;;;5030768;28;20021;-67
2023/04/04 11:41:43;;;;;;;1.80;1.33;;;;;;;;;;5035570;28;20029;-68
2023/04/04 11:44:10;;;;;;;3.28;1.30;;;;;;;;;;5050289;28;20021;-68
2023/04/04 11:46:38;;;;;;;5.32;1.40;;;;;;;;;;5049850;28;20378;-67
2023/04/04 11:49:05;;;;;;;2.90;1.50;;;;;;;;;;5050509;28;20033;-67
2023/04/04 11:51:32;;;;;;;1.15;1.00;;;;;;;;;;5050443;28;20033;-68
2023/04/04 11:53:59;;;;;;;3.40;1.50;;;;;;;;;;5051085;28;20383;-68
2023/04/04 11:56:26;;;;;;;1.35;1.10;;;;;;;;;;5050804;28;20481;-68
2023/04/04 11:58:52;;;;;;;2.38;1.42;;;;;;;;;;5051894;28;20027;-68
2023/04/04 12:01:19;;;;;;;2.65;1.50;;;;;;;;;;5051410;28;20033;-68
2023/04/04 12:03:46;;;;;;;3.17;1.45;;;;;;;;;;5051152;28;20669;-69
2023/04/04 12:06:12;;;;;;;7.68;1.60;;;;;;;;;;5048131;28;20028;-68
2023/04/04 12:08:39;;;;;;;1.35;1.20;;;;;;;;;;5030692;28;20075;-68
2023/04/04 12:11:09;;;;;;;2.08;1.27;;;;;;;;;;5040070;28;20516;-68
2023/04/04 12:13:43;;;;;;;2.08;1.30;;;;;;;;;;5050427;28;20709;-68
2023/04/04 12:16:09;;;;;;;2.45;1.13;;;;;;;;;;5050072;28;20021;-67
2023/04/04 12:18:36;;;;;;;2.75;1.30;;;;;;;;;;5050334;28;20029;-68
2023/04/04 12:21:03;;;;;;;1.33;1.20;;;;;;;;;;5049506;28;20497;-69
2023/04/04 12:23:33;;;;;;;1.25;1.15;;;;;;;;;;5050393;28;20029;-68
2023/04/04 12:26:02;;;;;;;1.30;1.20;;;;;;;;;;5050173;28;20511;-68
2023/04/04 12:28:31;;;;;;;2.67;1.30;;;;;;;;;;5049808;28;20021;-67
2023/04/04 12:31:04;;;;;;;3.10;1.63;;;;;;;;;;5062097;28;20055;-68
2023/04/04 12:33:34;;;;;;;1.45;1.30;;;;;;;;;;5050281;28;20029;-68
2023/04/04 12:36:02;;;;;;;;;;;;;;;;;;5050288;28;20036;-69
2023/04/04 12:38:30;;;;;;;1.23;1.13;;;;;;;;;;5045484;28;19904;-68
2023/04/04 12:40:56;;;;;;;2.22;1.30;;;;;;;;;;5038252;28;20036;-68
2023/04/04 12:43:26;;;;;;;1.48;1.23;;;;;;;;;;5050003;28;20481;-68
2023/04/04 12:45:54;;;;;;;1.50;1.40;;;;;;;;;;5040044;28;20024;-69
2023/04/04 12:48:25;;;;;;;1.30;1.20;;;;;;;;;;5049072;28;20037;-68
2023/04/04 12:50:59;;;;;;;2.08;1.20;;;;;;;;;;5045735;28;20029;-68
2023/04/04 12:53:29;;;;;;;1.98;1.25;;;;;;;;;;5048449;28;20025;-68
2023/04/04 12:55:59;;;;;;;1.60;1.38;;;;;;;;;;5047302;28;20404;-68
2023/04/04 12:58:26;;;;;;;1.35;1.08;;;;;;;;;;5043983;28;20021;-68
2023/04/04 13:00:53;;;;;;;2.58;1.40;;;;;;;;;;5044737;28;20493;-68
2023/04/04 13:03:21;;;;;;;1.60;1.13;;;;;;;;;;5047316;28;20025;-68
2023/04/04 13:05:48;;;;;;;3.63;1.40;;;;;;;;;;5043123;28;20036;-68
2023/04/04 13:08:16;;;;;;;1.35;1.23;;;;;;;;;;5047333;28;20021;-68
2023/04/04 13:10:58;;;;;;;1.50;1.10;;;;;;;;;;5047372;28;20029;-68
2023/04/04 13:13:35;;;;;;;1.35;1.25;;;;;;;;;;5040303;28;20401;-68
2023/04/04 13:16:01;;;;;;;2.05;1.25;;;;;;;;;;5052943;28;20206;-68
2023/04/04 13:18:32;;;;;;;1.30;1.20;;;;;;;;;;5053121;28;20033;-68
2023/04/04 13:20:58;;;;;;;5.57;1.30;;;;;;;;;;5052633;28;20039;-68
2023/04/04 13:23:24;;;;;;;1.50;1.40;;;;;;;;;;5053005;28;20021;-68
2023/04/04 13:25:51;;;;;;;1.98;1.45;;;;;;;;;;5052548;28;20033;-70
2023/04/04 13:28:17;;;;;;;1.00;0.93;;;;;;;;;;5052747;28;20020;-70
2023/04/04 13:30:47;;;;;;;1.33;1.20;;;;;;;;;;5053185;28;20401;-67
2023/04/04 13:33:17;;;;;;;1.30;1.00;;;;;;;;;;5054999;28;20586;-70
2023/04/04 13:35:44;;;;;;;3.00;0.93;;;;;;;;;;5056599;28;20037;-70
2023/04/04 13:38:11;;;;;;;2.17;1.20;;;;;;;;;;5052982;28;20024;-69
2023/04/04 13:40:37;;;;;;;3.72;1.20;;;;;;;;;;5052550;28;20047;-69
2023/04/04 13:43:03;;;;;;;2.03;1.10;;;;;;;;;;5052933;28;20043;-70
2023/04/04 13:45:33;;;;;;;2.47;1.20;;;;;;;;;;5052861;28;20035;-70
2023/04/04 13:48:00;;;;;;;2.92;1.10;;;;;;;;;;5051014;28;20021;-70
2023/04/04 13:50:27;;;;;;;0.95;0.93;;;;;;;;;;5052867;28;20041;-72
2023/04/04 13:52:53;;;;;;;3.25;1.30;;;;;;;;;;5052888;28;20027;-70
2023/04/04 13:55:20;;;;;;;1.00;0.90;;;;;;;;;;5052923;28;20031;-70
2023/04/04 13:57:47;;;;;;;1.10;1.00;;;;;;;;;;5052579;28;20547;-70
2023/04/04 14:00:13;;;;;;;2.00;1.30;;;;;;;;;;5053094;28;20047;-70
2023/04/04 14:02:40;;;;;;;1.58;1.30;;;;;;;;;;5053523;28;20493;-70
2023/04/04 14:05:07;;;;;;;0.95;0.95;;;;;;;;;;5050970;28;20036;-69
2023/04/04 14:07:33;;;;;;;1.48;1.23;;;;;;;;;;5052588;28;20470;-70
2023/04/04 14:09:59;;;;;;;1.67;1.30;;;;;;;;;;5052377;28;20393;-70
2023/04/04 14:12:26;;;;;;;1.38;1.00;;;;;;;;;;5052601;28;20044;-70
2023/04/04 14:14:53;;;;;;;2.00;1.33;;;;;;;;;;5052363;28;20058;-69
2023/04/04 14:17:20;;;;;;;1.25;1.00;;;;;;;;;;5046805;28;20389;-70
2023/04/04 14:19:46;;;;;;;1.38;1.13;;;;;;;;;;5051517;28;20029;-70
2023/04/04 14:22:12;;;;;;;1.58;1.10;;;;;;;;;;5052194;28;20059;-70
2023/04/04 14:24:38;;;;;;;1.00;1.00;;;;;;;;;;5052102;28;20029;-70
2023/04/04 14:27:05;;;;;;;1.10;0.90;;;;;;;;;;5052391;28;20029;-70
2023/04/04 14:29:31;;;;;;;1.63;1.00;;;;;;;;;;5052127;28;20053;-70
2023/04/04 14:31:59;;;;;;;1.63;1.10;;;;;;;;;;5050881;28;20029;-69
2023/04/04 14:34:26;;;;;;;1.80;0.88;;;;;;;;;;5052057;28;20017;-69
2023/04/04 14:36:53;;;;;;;1.55;1.10;;;;;;;;;;5052138;28;20519;-70
2023/04/04 14:39:19;;;;;;;2.35;1.10;;;;;;;;;;5052230;28;20017;-70
2023/04/04 14:41:46;;;;;;;3.35;0.98;;;;;;;;;;5052133;28;20028;-70
2023/04/04 14:44:13;;;;;;;1.75;1.05;;;;;;;;;;5049828;28;20017;-70
2023/04/04 14:46:39;;;;;;;2.03;1.00;;;;;;;;;;5051524;28;20410;-70
2023/04/04 14:49:07;;;;;;;5.00;1.02;;;;;;;;;;5050515;28;20535;-70